createdAt,value
2017-10-27T00:00:49.510Z,0
2017-10-27T00:01:58.312Z,0
2017-10-27T00:03:07.132Z,0
2017-10-27T00:04:17.116Z,0
2017-10-27T00:05:26.441Z,0
2017-10-27T00:06:35.802Z,0
2017-10-27T00:07:44.456Z,0
2017-10-27T00:08:53.790Z,0
2017-10-27T00:10:03.473Z,0
2017-10-27T00:11:12.149Z,0
2017-10-27T00:12:20.797Z,0
2017-10-27T00:13:29.791Z,0
2017-10-27T00:14:38.781Z,0
2017-10-27T00:15:47.779Z,0
2017-10-27T00:16:57.088Z,0
2017-10-27T00:18:06.388Z,0
2017-10-27T00:19:15.754Z,0
2017-10-27T00:20:24.417Z,0
2017-10-27T00:21:33.403Z,0
2017-10-27T00:22:42.737Z,0
2017-10-27T00:23:51.723Z,0
2017-10-27T00:25:00.379Z,0
2017-10-27T00:26:09.696Z,0
2017-10-27T00:27:18.698Z,0
2017-10-27T00:28:27.740Z,0
2017-10-27T00:29:36.396Z,0
2017-10-27T00:30:45.697Z,0
2017-10-27T00:31:55.347Z,0
2017-10-27T00:33:03.997Z,0
2017-10-27T00:34:12.765Z,0
2017-10-27T00:35:21.416Z,0
2017-10-27T00:36:30.068Z,0
2017-10-27T00:37:39.070Z,0
2017-10-27T00:38:48.391Z,0
2017-10-27T00:39:57.703Z,0
2017-10-27T00:41:07.017Z,0
2017-10-27T00:42:16.014Z,0
2017-10-27T00:43:25.675Z,0
2017-10-27T00:44:34.646Z,0
2017-10-27T00:45:43.633Z,0
2017-10-27T00:46:52.619Z,0
2017-10-27T00:48:02.271Z,0
2017-10-27T00:49:11.572Z,0
2017-10-27T00:50:20.985Z,0
2017-10-27T00:51:30.334Z,0
2017-10-27T00:52:39.319Z,0
2017-10-27T00:53:48.632Z,0
2017-10-27T00:54:57.614Z,0
2017-10-27T00:56:06.935Z,0
2017-10-27T00:57:16.925Z,0
2017-10-27T00:58:26.221Z,0
2017-10-27T00:59:35.192Z,0
2017-10-27T01:00:45.190Z,0
2017-10-27T01:01:53.856Z,0
2017-10-27T01:03:02.512Z,0
2017-10-27T01:04:11.501Z,0
2017-10-27T01:05:20.823Z,0
2017-10-27T01:06:29.821Z,0
2017-10-27T01:07:38.554Z,0
2017-10-27T01:08:47.873Z,0
2017-10-27T01:09:56.543Z,0
2017-10-27T01:11:05.864Z,0
2017-10-27T01:12:15.503Z,0
2017-10-27T01:13:24.854Z,0
2017-10-27T01:14:33.535Z,0
2017-10-27T01:15:42.850Z,0
2017-10-27T01:16:52.186Z,0
2017-10-27T01:18:01.527Z,0
2017-10-27T01:19:10.489Z,0
2017-10-27T01:20:19.464Z,0
2017-10-27T01:21:28.446Z,0
2017-10-27T01:22:37.755Z,0
2017-10-27T01:23:46.425Z,0
2017-10-27T01:24:55.766Z,0
2017-10-27T01:26:04.758Z,0
2017-10-27T01:27:14.074Z,0
2017-10-27T01:28:23.712Z,0
2017-10-27T01:29:32.382Z,0
2017-10-27T01:30:42.362Z,0
2017-10-27T01:31:51.670Z,0
2017-10-27T01:33:00.328Z,0
2017-10-27T01:34:09.637Z,0
2017-10-27T01:35:18.608Z,0
2017-10-27T01:36:27.264Z,0
2017-10-27T01:37:35.932Z,0
2017-10-27T01:38:45.239Z,0
2017-10-27T01:39:54.214Z,0
2017-10-27T01:41:03.851Z,0
2017-10-27T01:42:12.514Z,0
2017-10-27T01:43:21.190Z,0
2017-10-27T01:44:29.856Z,0
2017-10-27T01:45:39.188Z,0
2017-10-27T01:46:47.851Z,0
2017-10-27T01:47:56.839Z,0
2017-10-27T01:49:05.804Z,0
2017-10-27T01:50:14.825Z,0
2017-10-27T01:51:23.514Z,0
2017-10-27T01:52:32.829Z,0
2017-10-27T01:53:42.141Z,0
2017-10-27T01:54:50.803Z,0
2017-10-27T01:56:00.120Z,0
2017-10-27T01:57:09.097Z,0
2017-10-27T01:58:18.402Z,0
2017-10-27T01:59:27.406Z,0
2017-10-27T02:00:36.394Z,0
2017-10-27T02:01:45.384Z,0
2017-10-27T02:02:55.028Z,0
2017-10-27T02:04:03.998Z,0
2017-10-27T02:05:12.663Z,0
2017-10-27T02:06:21.635Z,0
2017-10-27T02:07:30.971Z,0
2017-10-27T02:08:40.601Z,0
2017-10-27T02:09:49.571Z,0
2017-10-27T02:10:58.924Z,0
2017-10-27T02:12:08.254Z,0
2017-10-27T02:13:17.239Z,0
2017-10-27T02:14:26.233Z,0
2017-10-27T02:15:34.900Z,0
2017-10-27T02:16:44.216Z,0
2017-10-27T02:17:52.879Z,0
2017-10-27T02:19:02.201Z,0
2017-10-27T02:20:11.859Z,0
2017-10-27T02:21:21.170Z,0
2017-10-27T02:22:30.150Z,0
2017-10-27T02:23:39.458Z,0
2017-10-27T02:24:48.442Z,0
2017-10-27T02:25:57.110Z,0
2017-10-27T02:27:06.416Z,0
2017-10-27T02:28:15.392Z,0
2017-10-27T02:29:24.392Z,0
2017-10-27T02:30:34.049Z,0
2017-10-27T02:31:42.713Z,0
2017-10-27T02:32:52.361Z,0
2017-10-27T02:34:01.364Z,0
2017-10-27T02:35:10.364Z,0
2017-10-27T02:36:19.339Z,0
2017-10-27T02:37:28.991Z,0
2017-10-27T02:38:38.306Z,0
2017-10-27T02:39:47.626Z,0
2017-10-27T02:40:56.610Z,0
2017-10-27T02:42:05.590Z,0
2017-10-27T02:43:14.577Z,0
2017-10-27T02:44:23.569Z,0
2017-10-27T02:45:32.920Z,0
2017-10-27T02:46:41.585Z,0
2017-10-27T02:47:50.569Z,0
2017-10-27T02:48:59.234Z,0
2017-10-27T02:50:08.220Z,0
2017-10-27T02:51:17.214Z,0
2017-10-27T02:52:26.206Z,0
2017-10-27T02:53:35.192Z,0
2017-10-27T02:54:44.180Z,0
2017-10-27T02:55:52.838Z,0
2017-10-27T02:57:01.802Z,0
2017-10-27T02:58:10.787Z,0
2017-10-27T02:59:19.800Z,0
2017-10-27T03:00:29.120Z,0
2017-10-27T03:01:38.431Z,0
2017-10-27T03:02:47.746Z,0
2017-10-27T03:03:57.045Z,0
2017-10-27T03:05:05.708Z,0
2017-10-27T03:06:14.676Z,0
2017-10-27T03:07:23.991Z,0
2017-10-27T03:08:33.295Z,0
2017-10-27T03:09:42.278Z,0
2017-10-27T03:10:50.937Z,0
2017-10-27T03:12:00.268Z,0
2017-10-27T03:13:09.258Z,0
2017-10-27T03:14:19.550Z,0
2017-10-27T03:15:28.202Z,0
2017-10-27T03:16:37.186Z,0
2017-10-27T03:17:46.493Z,0
2017-10-27T03:18:55.487Z,0
2017-10-27T03:20:04.138Z,0
2017-10-27T03:21:13.454Z,0
2017-10-27T03:22:23.085Z,0
2017-10-27T03:23:32.370Z,0
2017-10-27T03:24:41.354Z,0
2017-10-27T03:25:50.326Z,0
2017-10-27T03:26:58.967Z,0
2017-10-27T03:28:07.949Z,0
2017-10-27T03:29:16.918Z,0
2017-10-27T03:30:26.884Z,0
2017-10-27T03:31:35.865Z,0
2017-10-27T03:32:44.842Z,0
2017-10-27T03:33:54.144Z,0
2017-10-27T03:35:03.472Z,0
2017-10-27T03:36:12.455Z,0
2017-10-27T03:37:22.107Z,0
2017-10-27T03:38:31.415Z,0
2017-10-27T03:39:40.394Z,0
2017-10-27T03:40:49.385Z,0
2017-10-27T03:41:58.754Z,0
2017-10-27T03:43:07.753Z,0
2017-10-27T03:44:16.427Z,0
2017-10-27T03:45:25.729Z,0
2017-10-27T03:46:35.024Z,0
2017-10-27T03:47:43.690Z,0
2017-10-27T03:48:53.022Z,0
2017-10-27T03:50:02.336Z,0
2017-10-27T03:51:10.994Z,0
2017-10-27T03:52:19.969Z,0
2017-10-27T03:53:29.284Z,0
2017-10-27T03:54:38.261Z,0
2017-10-27T03:55:47.258Z,0
2017-10-27T03:56:56.567Z,0
2017-10-27T03:58:05.609Z,0
2017-10-27T03:59:14.944Z,0
2017-10-27T04:00:23.596Z,0
2017-10-27T04:01:32.250Z,0
2017-10-27T04:02:41.764Z,0
2017-10-27T04:03:51.434Z,0
2017-10-27T04:05:01.077Z,0
2017-10-27T04:06:09.734Z,0
2017-10-27T04:07:18.771Z,0
2017-10-27T04:08:28.097Z,0
2017-10-27T04:09:37.420Z,0
2017-10-27T04:10:46.089Z,0
2017-10-27T04:11:55.070Z,0
2017-10-27T04:13:04.045Z,0
2017-10-27T04:14:13.363Z,0
2017-10-27T04:15:22.366Z,0
2017-10-27T04:16:32.034Z,0
2017-10-27T04:17:41.697Z,0
2017-10-27T04:18:50.367Z,0
2017-10-27T04:19:59.345Z,0
2017-10-27T04:21:08.683Z,0
2017-10-27T04:22:17.330Z,0
2017-10-27T04:23:26.000Z,0
2017-10-27T04:24:34.987Z,0
2017-10-27T04:25:43.641Z,0
2017-10-27T04:26:52.608Z,0
2017-10-27T04:28:01.282Z,0
2017-10-27T04:29:10.357Z,0
2017-10-27T04:30:19.349Z,0
2017-10-27T04:31:28.335Z,0
2017-10-27T04:32:37.318Z,0
2017-10-27T04:33:45.975Z,0
2017-10-27T04:34:55.310Z,0
2017-10-27T04:36:04.318Z,0
2017-10-27T04:37:13.616Z,0
2017-10-27T04:38:22.603Z,0
2017-10-27T04:39:31.279Z,0
2017-10-27T04:40:39.938Z,0
2017-10-27T04:41:48.587Z,0
2017-10-27T04:42:57.258Z,0
2017-10-27T04:44:06.567Z,0
2017-10-27T04:45:15.876Z,0
2017-10-27T04:46:24.535Z,0
2017-10-27T04:47:33.184Z,0
2017-10-27T04:48:42.481Z,0
2017-10-27T04:49:51.477Z,0
2017-10-27T04:51:00.458Z,0
2017-10-27T04:52:09.784Z,0
2017-10-27T04:53:19.416Z,0
2017-10-27T04:54:28.416Z,0
2017-10-27T04:55:37.707Z,0
2017-10-27T04:56:46.362Z,0
2017-10-27T04:57:55.339Z,0
2017-10-27T04:59:04.311Z,0
2017-10-27T05:00:13.946Z,0
2017-10-27T05:01:22.592Z,0
2017-10-27T05:02:31.896Z,0
2017-10-27T05:03:40.874Z,0
2017-10-27T05:04:49.851Z,0
2017-10-27T05:05:59.819Z,0
2017-10-27T05:07:08.479Z,0
2017-10-27T05:08:17.771Z,0
2017-10-27T05:09:26.753Z,0
2017-10-27T05:10:35.725Z,0
2017-10-27T05:11:44.719Z,0
2017-10-27T05:12:53.369Z,0
2017-10-27T05:14:02.357Z,0
2017-10-27T05:15:11.345Z,0
2017-10-27T05:16:20.641Z,0
2017-10-27T05:17:29.625Z,0
2017-10-27T05:18:38.272Z,0
2017-10-27T05:19:47.246Z,0
2017-10-27T05:20:57.216Z,0
2017-10-27T05:22:05.878Z,0
2017-10-27T05:23:14.869Z,0
2017-10-27T05:24:24.503Z,0
2017-10-27T05:25:33.157Z,0
2017-10-27T05:26:41.806Z,0
2017-10-27T05:27:50.458Z,0
2017-10-27T05:28:59.523Z,0
2017-10-27T05:30:09.178Z,0
2017-10-27T05:31:17.847Z,0
2017-10-27T05:32:27.475Z,0
2017-10-27T05:33:36.455Z,0
2017-10-27T05:34:46.119Z,0
2017-10-27T05:35:55.120Z,0
2017-10-27T05:37:04.432Z,0
2017-10-27T05:38:13.439Z,0
2017-10-27T05:39:23.080Z,0
2017-10-27T05:40:32.055Z,0
2017-10-27T05:41:41.037Z,0
2017-10-27T05:42:50.079Z,0
2017-10-27T05:43:58.722Z,0
2017-10-27T05:45:07.767Z,0
2017-10-27T05:46:16.756Z,0
2017-10-27T05:47:25.736Z,0
2017-10-27T05:48:34.701Z,0
2017-10-27T05:49:44.000Z,0
2017-10-27T05:50:52.983Z,0
2017-10-27T05:52:02.326Z,0
2017-10-27T05:53:11.629Z,0
2017-10-27T05:54:20.624Z,0
2017-10-27T05:55:29.654Z,0
2017-10-27T05:56:38.628Z,0
2017-10-27T05:57:47.665Z,0
2017-10-27T05:58:56.327Z,0
2017-10-27T06:00:05.311Z,0
2017-10-27T06:01:13.959Z,0
2017-10-27T06:02:23.280Z,0
2017-10-27T06:03:32.266Z,0
2017-10-27T06:04:40.918Z,0
2017-10-27T06:05:50.228Z,0
2017-10-27T06:06:58.868Z,0
2017-10-27T06:08:07.880Z,0
2017-10-27T06:09:17.182Z,0
2017-10-27T06:10:26.158Z,0
2017-10-27T06:11:35.870Z,0
2017-10-27T06:12:44.843Z,0
2017-10-27T06:13:53.820Z,0
2017-10-27T06:15:02.819Z,0
2017-10-27T06:16:12.112Z,0
2017-10-27T06:17:21.404Z,0
2017-10-27T06:18:30.052Z,0
2017-10-27T06:19:38.700Z,0
2017-10-27T06:20:48.014Z,0
2017-10-27T06:21:57.343Z,0
2017-10-27T06:23:06.644Z,0
2017-10-27T06:24:15.980Z,0
2017-10-27T06:25:25.284Z,0
2017-10-27T06:26:34.258Z,0
2017-10-27T06:27:43.911Z,0
2017-10-27T06:28:53.543Z,0
2017-10-27T06:30:02.523Z,0
2017-10-27T06:31:11.533Z,0
2017-10-27T06:32:20.529Z,0
2017-10-27T06:33:29.192Z,0
2017-10-27T06:34:38.200Z,0
2017-10-27T06:35:47.197Z,0
2017-10-27T06:36:55.859Z,0
2017-10-27T06:38:05.208Z,0
2017-10-27T06:39:14.219Z,0
2017-10-27T06:40:23.222Z,0
2017-10-27T06:41:32.534Z,0
2017-10-27T06:42:41.882Z,0
2017-10-27T06:43:50.877Z,0
2017-10-27T06:44:59.894Z,0
2017-10-27T06:46:08.877Z,0
2017-10-27T06:47:17.907Z,0
2017-10-27T06:48:27.258Z,0
2017-10-27T06:49:37.234Z,5
2017-10-27T06:50:46.222Z,0
2017-10-27T06:51:55.226Z,5
2017-10-27T06:53:04.222Z,5
2017-10-27T06:54:13.210Z,5
2017-10-27T06:55:22.212Z,0
2017-10-27T06:56:31.273Z,5
2017-10-27T06:57:39.936Z,5
2017-10-27T06:58:48.925Z,5
2017-10-27T06:59:58.255Z,5
2017-10-27T07:01:07.917Z,5
2017-10-27T07:02:16.915Z,5
2017-10-27T07:03:25.925Z,5
2017-10-27T07:04:35.247Z,5
2017-10-27T07:05:43.949Z,5
2017-10-27T07:06:52.706Z,5
2017-10-27T07:08:01.706Z,10
2017-10-27T07:09:10.735Z,10
2017-10-27T07:10:19.717Z,10
2017-10-27T07:11:28.702Z,10
2017-10-27T07:12:37.755Z,10
2017-10-27T07:13:46.752Z,10
2017-10-27T07:14:55.752Z,10
2017-10-27T07:16:04.743Z,5
2017-10-27T07:17:13.733Z,5
2017-10-27T07:18:22.393Z,5
2017-10-27T07:19:31.083Z,5
2017-10-27T07:20:40.131Z,5
2017-10-27T07:21:50.115Z,0
2017-10-27T07:22:59.094Z,0
2017-10-27T07:24:08.161Z,5
2017-10-27T07:25:17.146Z,5
2017-10-27T07:26:26.448Z,10
2017-10-27T07:27:35.750Z,10
2017-10-27T07:28:45.739Z,5
2017-10-27T07:29:55.390Z,5
2017-10-27T07:31:04.770Z,10
2017-10-27T07:32:13.536Z,10
2017-10-27T07:33:22.602Z,10
2017-10-27T07:34:31.596Z,10
2017-10-27T07:35:40.283Z,5
2017-10-27T07:36:49.848Z,5
2017-10-27T07:37:58.970Z,5
2017-10-27T07:39:08.870Z,5
2017-10-27T07:40:18.734Z,5
2017-10-27T07:41:28.076Z,5
2017-10-27T07:42:36.765Z,5
2017-10-27T07:43:46.145Z,5
2017-10-27T07:44:54.805Z,10
2017-10-27T07:46:04.153Z,10
2017-10-27T07:47:13.181Z,10
2017-10-27T07:48:22.170Z,10
2017-10-27T07:49:31.198Z,10
2017-10-27T07:50:40.601Z,15
2017-10-27T07:51:49.625Z,15
2017-10-27T07:52:59.647Z,10
2017-10-27T07:54:08.323Z,10
2017-10-27T07:55:17.764Z,10
2017-10-27T07:56:27.097Z,15
2017-10-27T07:57:36.093Z,20
2017-10-27T07:58:44.798Z,20
2017-10-27T07:59:54.136Z,20
2017-10-27T08:01:03.164Z,20
2017-10-27T08:02:12.851Z,20
2017-10-27T08:03:23.027Z,20
2017-10-27T08:04:32.057Z,15
2017-10-27T08:05:41.455Z,15
2017-10-27T08:06:50.140Z,15
2017-10-27T08:07:59.554Z,15
2017-10-27T08:09:08.514Z,15
2017-10-27T08:10:17.547Z,10
2017-10-27T08:11:27.569Z,10
2017-10-27T08:12:37.609Z,15
2017-10-27T08:13:48.453Z,15
2017-10-27T08:14:57.118Z,15
2017-10-27T08:16:07.147Z,15
2017-10-27T08:17:16.471Z,15
2017-10-27T08:18:26.136Z,15
2017-10-27T08:19:34.841Z,15
2017-10-27T08:20:44.233Z,15
2017-10-27T08:21:53.265Z,15
2017-10-27T08:23:02.584Z,15
2017-10-27T08:24:11.640Z,15
2017-10-27T08:25:20.668Z,15
2017-10-27T08:26:29.682Z,15
2017-10-27T08:27:39.068Z,15
2017-10-27T08:28:48.070Z,15
2017-10-27T08:29:57.393Z,15
2017-10-27T08:31:06.097Z,15
2017-10-27T08:32:15.446Z,20
2017-10-27T08:33:24.507Z,15
2017-10-27T08:34:33.847Z,20
2017-10-27T08:35:42.851Z,15
2017-10-27T08:36:52.260Z,15
2017-10-27T08:38:01.320Z,15
2017-10-27T08:39:10.371Z,15
2017-10-27T08:40:19.374Z,15
2017-10-27T08:41:28.389Z,20
2017-10-27T08:42:37.378Z,20
2017-10-27T08:43:46.711Z,25
2017-10-27T08:44:56.040Z,25
2017-10-27T08:46:05.051Z,30
2017-10-27T08:47:13.709Z,25
2017-10-27T08:48:22.729Z,20
2017-10-27T08:49:31.767Z,20
2017-10-27T08:50:40.880Z,35
2017-10-27T08:51:50.027Z,30
2017-10-27T08:52:59.060Z,25
2017-10-27T08:54:08.762Z,25
2017-10-27T08:55:18.100Z,15
2017-10-27T08:56:27.122Z,15
2017-10-27T08:57:35.799Z,20
2017-10-27T08:58:44.486Z,30
2017-10-27T08:59:53.489Z,35
2017-10-27T09:01:02.876Z,20
2017-10-27T09:02:12.523Z,25
2017-10-27T09:03:21.214Z,25
2017-10-27T09:04:30.214Z,30
2017-10-27T09:05:38.922Z,25
2017-10-27T09:06:47.926Z,20
2017-10-27T09:07:56.598Z,25
2017-10-27T09:09:05.925Z,25
2017-10-27T09:10:14.587Z,30
2017-10-27T09:11:23.575Z,20
2017-10-27T09:12:32.553Z,20
2017-10-27T09:13:41.551Z,20
2017-10-27T09:14:51.218Z,30
2017-10-27T09:16:00.526Z,25
2017-10-27T09:17:09.515Z,20
2017-10-27T09:18:18.526Z,20
2017-10-27T09:19:27.533Z,20
2017-10-27T09:20:37.341Z,35
2017-10-27T09:21:46.684Z,35
2017-10-27T09:22:55.364Z,20
2017-10-27T09:24:04.709Z,20
2017-10-27T09:25:13.385Z,20
2017-10-27T09:26:22.708Z,20
2017-10-27T09:27:31.734Z,30
2017-10-27T09:28:40.729Z,30
2017-10-27T09:29:50.040Z,35
2017-10-27T09:30:59.388Z,25
2017-10-27T09:32:08.391Z,30
2017-10-27T09:33:17.470Z,35
2017-10-27T09:34:26.488Z,25
2017-10-27T09:35:35.231Z,20
2017-10-27T09:36:44.572Z,25
2017-10-27T09:37:53.923Z,30
2017-10-27T09:39:02.939Z,40
2017-10-27T09:40:12.483Z,35
2017-10-27T09:41:21.784Z,20
2017-10-27T09:42:31.262Z,15
2017-10-27T09:43:39.952Z,20
2017-10-27T09:44:48.942Z,20
2017-10-27T09:45:58.273Z,20
2017-10-27T09:47:07.292Z,25
2017-10-27T09:48:16.649Z,25
2017-10-27T09:49:25.986Z,25
2017-10-27T09:50:35.642Z,25
2017-10-27T09:51:44.974Z,20
2017-10-27T09:52:53.647Z,15
2017-10-27T09:54:03.339Z,15
2017-10-27T09:55:12.684Z,10
2017-10-27T09:56:22.045Z,10
2017-10-27T09:57:31.058Z,15
2017-10-27T09:58:40.386Z,25
2017-10-27T09:59:50.073Z,35
2017-10-27T10:00:59.041Z,35
2017-10-27T10:02:08.347Z,25
2017-10-27T10:03:17.753Z,20
2017-10-27T10:04:27.145Z,20
2017-10-27T10:05:35.953Z,25
2017-10-27T10:06:45.266Z,30
2017-10-27T10:07:54.267Z,20
2017-10-27T10:09:03.591Z,15
2017-10-27T10:10:12.249Z,20
2017-10-27T10:11:21.573Z,25
2017-10-27T10:12:30.580Z,45
2017-10-27T10:13:40.235Z,40
2017-10-27T10:14:49.236Z,35
2017-10-27T10:15:58.248Z,25
2017-10-27T10:17:07.247Z,25
2017-10-27T10:18:16.554Z,25
2017-10-27T10:19:25.577Z,25
2017-10-27T10:20:34.617Z,20
2017-10-27T10:21:43.629Z,25
2017-10-27T10:22:52.329Z,30
2017-10-27T10:24:01.007Z,30
2017-10-27T10:25:09.691Z,25
2017-10-27T10:26:18.359Z,20
2017-10-27T10:27:28.039Z,20
2017-10-27T10:28:36.699Z,10
2017-10-27T10:29:45.695Z,5
2017-10-27T10:30:54.685Z,10
2017-10-27T10:32:04.010Z,10
2017-10-27T10:33:13.010Z,15
2017-10-27T10:34:21.688Z,20
2017-10-27T10:35:30.741Z,25
2017-10-27T10:36:39.407Z,25
2017-10-27T10:37:48.398Z,20
2017-10-27T10:38:57.762Z,25
2017-10-27T10:40:06.758Z,25
2017-10-27T10:41:16.107Z,25
2017-10-27T10:42:25.116Z,25
2017-10-27T10:43:34.462Z,25
2017-10-27T10:44:43.470Z,25
2017-10-27T10:45:53.475Z,25
2017-10-27T10:47:02.812Z,20
2017-10-27T10:48:11.482Z,25
2017-10-27T10:49:20.829Z,25
2017-10-27T10:50:30.163Z,30
2017-10-27T10:51:39.167Z,40
2017-10-27T10:52:48.520Z,40
2017-10-27T10:53:57.514Z,35
2017-10-27T10:55:06.569Z,25
2017-10-27T10:56:15.583Z,20
2017-10-27T10:57:24.598Z,15
2017-10-27T10:58:34.005Z,15
2017-10-27T10:59:43.334Z,15
2017-10-27T11:00:52.978Z,15
2017-10-27T11:02:02.001Z,20
2017-10-27T11:03:11.001Z,25
2017-10-27T11:04:19.691Z,25
2017-10-27T11:05:28.700Z,25
2017-10-27T11:06:37.719Z,35
2017-10-27T11:07:47.032Z,35
2017-10-27T11:08:55.729Z,30
2017-10-27T11:10:04.754Z,30
2017-10-27T11:11:13.778Z,30
2017-10-27T11:12:22.454Z,25
2017-10-27T11:13:31.126Z,15
2017-10-27T11:14:40.793Z,10
2017-10-27T11:15:50.157Z,10
2017-10-27T11:16:59.834Z,10
2017-10-27T11:18:09.241Z,15
2017-10-27T11:19:18.641Z,10
2017-10-27T11:20:27.637Z,15
2017-10-27T11:21:36.754Z,10
2017-10-27T11:22:45.966Z,10
2017-10-27T11:23:55.686Z,15
2017-10-27T11:25:05.039Z,15
2017-10-27T11:26:13.743Z,15
2017-10-27T11:27:23.169Z,15
2017-10-27T11:28:32.414Z,15
2017-10-27T11:29:42.108Z,25
2017-10-27T11:30:51.450Z,35
2017-10-27T11:32:01.127Z,30
2017-10-27T11:33:10.162Z,30
2017-10-27T11:34:19.507Z,30
2017-10-27T11:35:29.176Z,30
2017-10-27T11:36:38.182Z,30
2017-10-27T11:37:46.891Z,25
2017-10-27T11:38:55.881Z,25
2017-10-27T11:40:04.912Z,25
2017-10-27T11:41:13.899Z,20
2017-10-27T11:42:23.574Z,20
2017-10-27T11:43:32.243Z,20
2017-10-27T11:44:41.896Z,20
2017-10-27T11:45:50.557Z,20
2017-10-27T11:46:59.568Z,15
2017-10-27T11:48:08.577Z,20
2017-10-27T11:49:17.652Z,20
2017-10-27T11:50:26.711Z,20
2017-10-27T11:51:35.698Z,25
2017-10-27T11:52:45.355Z,25
2017-10-27T11:53:54.386Z,25
2017-10-27T11:55:03.098Z,25
2017-10-27T11:56:11.772Z,25
2017-10-27T11:57:21.459Z,20
2017-10-27T11:58:30.777Z,20
2017-10-27T11:59:40.116Z,10
2017-10-27T12:00:49.131Z,5
2017-10-27T12:01:58.789Z,5
2017-10-27T12:03:07.441Z,5
2017-10-27T12:04:16.453Z,5
2017-10-27T12:05:25.471Z,5
2017-10-27T12:06:34.524Z,5
2017-10-27T12:07:43.217Z,5
2017-10-27T12:08:52.605Z,10
2017-10-27T12:10:01.677Z,10
2017-10-27T12:11:11.026Z,15
2017-10-27T12:12:20.062Z,15
2017-10-27T12:13:29.593Z,15
2017-10-27T12:14:38.600Z,15
2017-10-27T12:15:48.299Z,15
2017-10-27T12:16:57.622Z,15
2017-10-27T12:18:06.610Z,15
2017-10-27T12:19:15.611Z,15
2017-10-27T12:20:24.600Z,15
2017-10-27T12:21:33.932Z,15
2017-10-27T12:22:43.627Z,25
2017-10-27T12:23:52.963Z,25
2017-10-27T12:25:01.632Z,25
2017-10-27T12:26:11.331Z,25
2017-10-27T12:27:20.981Z,25
2017-10-27T12:28:30.318Z,20
2017-10-27T12:29:39.344Z,15
2017-10-27T12:30:48.320Z,5
2017-10-27T12:31:57.986Z,5
2017-10-27T12:33:07.952Z,5
2017-10-27T12:34:17.347Z,5
2017-10-27T12:35:26.931Z,5
2017-10-27T12:36:36.924Z,10
2017-10-27T12:37:47.062Z,10
2017-10-27T12:38:56.593Z,15
2017-10-27T12:40:06.021Z,15
2017-10-27T12:41:16.041Z,15
2017-10-27T12:42:26.618Z,15
2017-10-27T12:43:36.605Z,15
2017-10-27T12:44:45.274Z,20
2017-10-27T12:45:54.372Z,15
2017-10-27T12:47:03.148Z,15
2017-10-27T12:48:12.888Z,15
2017-10-27T12:49:22.505Z,20
2017-10-27T12:50:32.061Z,20
2017-10-27T12:51:42.085Z,20
2017-10-27T12:52:52.611Z,20
2017-10-27T12:54:01.984Z,20
2017-10-27T12:55:10.904Z,20
2017-10-27T12:56:20.093Z,25
2017-10-27T12:57:29.367Z,20
2017-10-27T12:58:38.758Z,20
2017-10-27T12:59:47.826Z,15
2017-10-27T13:00:57.391Z,15
2017-10-27T13:02:07.031Z,15
2017-10-27T13:03:16.888Z,10
2017-10-27T13:04:27.078Z,10
2017-10-27T13:05:36.270Z,10
2017-10-27T13:06:45.830Z,10
2017-10-27T13:07:55.673Z,10
2017-10-27T13:09:05.215Z,10
2017-10-27T13:10:14.208Z,10
2017-10-27T13:11:23.848Z,10
2017-10-27T13:12:33.318Z,10
2017-10-27T13:13:42.259Z,10
2017-10-27T13:14:52.128Z,10
2017-10-27T13:16:01.409Z,15
2017-10-27T13:17:11.164Z,20
2017-10-27T13:18:20.741Z,20
2017-10-27T13:19:29.885Z,25
2017-10-27T13:20:39.017Z,20
2017-10-27T13:21:47.693Z,15
2017-10-27T13:22:56.765Z,10
2017-10-27T13:24:06.047Z,10
2017-10-27T13:25:15.702Z,10
2017-10-27T13:26:25.390Z,10
2017-10-27T13:27:35.129Z,10
2017-10-27T13:28:45.163Z,10
2017-10-27T13:29:53.980Z,10
2017-10-27T13:31:04.128Z,10
2017-10-27T13:32:12.853Z,10
2017-10-27T13:33:22.264Z,10
2017-10-27T13:34:31.216Z,10
2017-10-27T13:35:40.017Z,10
2017-10-27T13:36:49.777Z,10
2017-10-27T13:37:58.512Z,10
2017-10-27T13:39:07.610Z,10
2017-10-27T13:40:17.512Z,10
2017-10-27T13:41:26.568Z,10
2017-10-27T13:42:36.521Z,15
2017-10-27T13:43:45.735Z,10
2017-10-27T13:44:55.948Z,10
2017-10-27T13:46:04.649Z,10
2017-10-27T13:47:15.435Z,10
2017-10-27T13:48:24.658Z,10
2017-10-27T13:49:34.501Z,10
2017-10-27T13:50:43.528Z,10
2017-10-27T13:51:52.533Z,10
2017-10-27T13:53:01.644Z,10
2017-10-27T13:54:10.690Z,10
2017-10-27T13:55:20.363Z,10
2017-10-27T13:56:29.888Z,10
2017-10-27T13:57:38.623Z,10
2017-10-27T13:58:48.702Z,10
2017-10-27T13:59:58.689Z,10
2017-10-27T14:01:07.706Z,10
2017-10-27T14:02:17.038Z,10
2017-10-27T14:03:26.973Z,10
2017-10-27T14:04:36.577Z,10
2017-10-27T14:05:45.720Z,10
2017-10-27T14:06:55.077Z,10
2017-10-27T14:08:04.501Z,10
2017-10-27T14:09:13.844Z,10
2017-10-27T14:10:22.871Z,10
2017-10-27T14:11:31.599Z,10
2017-10-27T14:12:40.984Z,10
2017-10-27T14:13:50.516Z,10
2017-10-27T14:14:59.513Z,10
2017-10-27T14:16:09.305Z,15
2017-10-27T14:17:18.743Z,15
2017-10-27T14:18:28.487Z,15
2017-10-27T14:19:39.120Z,10
2017-10-27T14:20:48.447Z,10
2017-10-27T14:21:57.761Z,10
2017-10-27T14:23:06.524Z,10
2017-10-27T14:24:15.903Z,10
2017-10-27T14:25:25.612Z,10
2017-10-27T14:26:35.021Z,10
2017-10-27T14:27:44.061Z,10
2017-10-27T14:28:53.429Z,10
2017-10-27T14:30:02.155Z,10
2017-10-27T14:31:10.881Z,15
2017-10-27T14:32:20.058Z,10
2017-10-27T14:33:28.810Z,10
2017-10-27T14:34:37.858Z,10
2017-10-27T14:35:46.579Z,10
2017-10-27T14:36:55.607Z,10
2017-10-27T14:38:04.666Z,10
2017-10-27T14:39:14.242Z,10
2017-10-27T14:40:23.312Z,10
2017-10-27T14:41:32.647Z,10
2017-10-27T14:42:41.744Z,10
2017-10-27T14:43:50.456Z,10
2017-10-27T14:45:00.111Z,10
2017-10-27T14:46:09.437Z,10
2017-10-27T14:47:18.776Z,10
2017-10-27T14:48:28.167Z,10
2017-10-27T14:49:37.833Z,10
2017-10-27T14:50:46.528Z,5
2017-10-27T14:52:28.266Z,5
2017-10-27T14:53:37.249Z,5
2017-10-27T14:54:46.258Z,5
2017-10-27T14:55:55.255Z,5
2017-10-27T14:57:04.923Z,5
2017-10-27T14:58:13.610Z,5
2017-10-27T14:59:22.656Z,5
2017-10-27T15:00:31.339Z,5
2017-10-27T15:01:40.677Z,5
2017-10-27T15:02:49.374Z,5
2017-10-27T15:03:58.382Z,5
2017-10-27T15:05:07.384Z,5
2017-10-27T15:06:17.065Z,5
2017-10-27T15:07:26.077Z,5
2017-10-27T15:08:34.750Z,5
2017-10-27T15:09:44.097Z,5
2017-10-27T15:10:53.444Z,5
2017-10-27T15:12:02.541Z,5
2017-10-27T15:13:11.900Z,0
2017-10-27T15:14:21.241Z,0
2017-10-27T15:15:30.572Z,0
2017-10-27T15:16:39.254Z,5
2017-10-27T15:17:48.273Z,5
2017-10-27T15:18:56.951Z,5
2017-10-27T15:20:05.956Z,0
2017-10-27T15:21:15.296Z,0
2017-10-27T15:22:24.959Z,0
2017-10-27T15:23:33.643Z,0
2017-10-27T15:24:42.332Z,0
2017-10-27T15:25:51.421Z,0
2017-10-27T15:27:00.749Z,0
2017-10-27T15:28:09.864Z,0
2017-10-27T15:29:18.848Z,0
2017-10-27T15:30:28.160Z,0
2017-10-27T15:31:36.842Z,0
2017-10-27T15:32:46.516Z,0
2017-10-27T15:33:55.528Z,0
2017-10-27T15:35:04.874Z,0
2017-10-27T15:36:14.275Z,0
2017-10-27T15:37:23.609Z,0
2017-10-27T15:38:32.603Z,0
2017-10-27T15:39:41.645Z,0
2017-10-27T15:40:50.758Z,0
2017-10-27T15:42:00.083Z,0
2017-10-27T15:43:09.409Z,0
2017-10-27T15:44:18.425Z,0
2017-10-27T15:45:27.411Z,0
2017-10-27T15:46:37.080Z,0
2017-10-27T15:47:46.428Z,0
2017-10-27T15:48:55.444Z,0
2017-10-27T15:50:04.444Z,0
2017-10-27T15:51:13.478Z,0
2017-10-27T15:52:22.483Z,0
2017-10-27T15:53:31.152Z,0
2017-10-27T15:54:39.843Z,0
2017-10-27T15:55:49.186Z,0
2017-10-27T15:56:59.195Z,0
2017-10-27T15:58:08.538Z,0
2017-10-27T15:59:17.545Z,0
2017-10-27T16:00:26.549Z,0
2017-10-27T16:01:35.538Z,0
2017-10-27T16:02:45.523Z,0
2017-10-27T16:03:54.545Z,0
2017-10-27T16:05:03.210Z,0
2017-10-27T16:06:11.864Z,0
2017-10-27T16:07:21.527Z,0
2017-10-27T16:08:30.536Z,0
2017-10-27T16:09:40.206Z,0
2017-10-27T16:10:49.220Z,0
2017-10-27T16:11:58.574Z,0
2017-10-27T16:13:07.557Z,0
2017-10-27T16:14:16.539Z,0
2017-10-27T16:15:25.532Z,0
2017-10-27T16:16:34.531Z,0
2017-10-27T16:17:43.668Z,0
2017-10-27T16:18:53.007Z,0
2017-10-27T16:20:02.066Z,0
2017-10-27T16:21:11.445Z,0
2017-10-27T16:22:20.426Z,0
2017-10-27T16:23:29.110Z,0
2017-10-27T16:24:38.437Z,0
2017-10-27T16:25:47.095Z,0
2017-10-27T16:26:56.453Z,0
2017-10-27T16:28:05.778Z,0
2017-10-27T16:29:14.456Z,0
2017-10-27T16:30:24.459Z,0
2017-10-27T16:31:34.268Z,0
2017-10-27T16:32:43.469Z,0
2017-10-27T16:33:52.464Z,0
2017-10-27T16:35:01.483Z,0
2017-10-27T16:36:10.527Z,0
2017-10-27T16:37:19.570Z,0
2017-10-27T16:38:28.926Z,0
2017-10-27T16:39:38.244Z,0
2017-10-27T16:40:46.910Z,0
2017-10-27T16:41:55.999Z,0
2017-10-27T16:43:05.008Z,0
2017-10-27T16:44:14.438Z,0
2017-10-27T16:45:23.463Z,0
2017-10-27T16:46:32.819Z,0
2017-10-27T16:47:41.483Z,0